Time;durP1;ratioP1;P1;durP2;ratioP2;P2;SDS_P1;SDS_P2;PMS_P1;PMS_P2;Temp;Humidity;BMP_temperature;BMP_pressure;BME280_temperature;BME280_humidity;BME280_pressure;Samples;Min_cycle;Max_cycle;Signal;HPM_P1;HPM_P2
2022/08/13 00:00:33;;;;;;;7.00;1.43;;;26.00;33.90;;;;;;5085778;28;20476;-66
2022/08/13 00:03:01;;;;;;;1.57;1.47;;;25.90;33.90;;;;;;5085948;28;20461;-68
2022/08/13 00:05:28;;;;;;;1.60;1.50;;;25.80;33.90;;;;;;5086383;28;20437;-67
2022/08/13 00:07:56;;;;;;;1.40;1.30;;;25.80;34.20;;;;;;5085827;28;20445;-67
2022/08/13 00:10:24;;;;;;;2.37;1.53;;;25.70;34.90;;;;;;5085962;28;20864;-66
2022/08/13 00:13:04;;;;;;;2.23;1.90;;;25.50;35.20;;;;;;5086044;28;20531;-66
2022/08/13 00:15:38;;;;;;;4.10;2.03;;;25.30;35.20;;;;;;5085683;28;20467;-66
2022/08/13 00:18:07;;;;;;;1.80;1.67;;;25.10;35.50;;;;;;5084510;28;20429;-66
2022/08/13 00:20:37;;;;;;;7.03;2.17;;;24.90;35.90;;;;;;5077267;28;20976;-66
2022/08/13 00:23:07;;;;;;;1.87;1.60;;;24.80;36.40;;;;;;5078387;28;20437;-66
2022/08/13 00:25:34;;;;;;;2.60;1.80;;;24.60;36.70;;;;;;5081885;28;20453;-66
2022/08/13 00:28:04;;;;;;;2.10;2.00;;;24.50;37.00;;;;;;5084814;28;20459;-67
2022/08/13 00:30:33;;;;;;;2.00;1.90;;;24.30;37.30;;;;;;5085135;28;21006;-67
2022/08/13 00:33:01;;;;;;;5.23;1.97;;;24.20;37.40;;;;;;5086662;28;21054;-66
2022/08/13 00:35:29;;;;;;;3.93;2.20;;;24.20;37.50;;;;;;5086079;28;20448;-66
2022/08/13 00:37:57;;;;;;;5.10;1.87;;;24.10;37.40;;;;;;5086015;28;20440;-66
2022/08/13 00:40:26;;;;;;;4.03;1.80;;;24.10;37.70;;;;;;5086345;28;20466;-66
2022/08/13 00:42:58;;;;;;;2.53;2.03;;;24.00;37.70;;;;;;5086444;28;20882;-66
2022/08/13 00:45:25;;;;;;;4.73;1.63;;;24.00;37.60;;;;;;5086268;28;20431;-67
2022/08/13 00:50:36;;;;;;;5.00;2.30;;;24.10;37.70;;;;;;5085601;28;20483;-67
2022/08/13 00:53:04;;;;;;;3.17;2.20;;;24.10;37.80;;;;;;5086488;28;20449;-66
2022/08/13 00:55:32;;;;;;;4.03;2.00;;;24.10;37.70;;;;;;5087270;28;20445;-67
2022/08/13 00:58:00;;;;;;;3.30;2.20;;;24.10;37.80;;;;;;5086925;28;20822;-67
2022/08/13 01:00:29;;;;;;;4.73;1.70;;;24.10;38.00;;;;;;5084990;28;20473;-67
2022/08/13 01:02:57;;;;;;;2.07;1.87;;;24.10;38.00;;;;;;5086756;28;20452;-66
2022/08/13 01:05:25;;;;;;;2.30;1.87;;;24.10;38.20;;;;;;5087049;28;20548;-66
2022/08/13 01:07:52;;;;;;;2.13;1.93;;;24.10;38.20;;;;;;5086896;28;20475;-66
2022/08/13 01:10:20;;;;;;;5.13;1.70;;;24.10;38.30;;;;;;5086435;28;20452;-66
2022/08/13 01:12:51;;;;;;;3.53;2.07;;;24.10;38.30;;;;;;5087168;28;20464;-66
2022/08/13 01:15:21;;;;;;;3.13;2.13;;;24.10;38.50;;;;;;5086340;28;20425;-66
2022/08/13 01:17:53;;;;;;;2.50;1.60;;;24.10;38.60;;;;;;5086254;28;20487;-67
2022/08/13 01:20:22;;;;;;;4.03;2.20;;;24.10;38.70;;;;;;5087046;28;20842;-67
2022/08/13 01:22:52;;;;;;;2.07;1.87;;;24.10;38.90;;;;;;5086024;28;20966;-66
2022/08/13 01:25:21;;;;;;;2.60;1.97;;;24.00;39.00;;;;;;5087133;28;20505;-66
2022/08/13 01:27:49;;;;;;;2.53;1.67;;;24.10;39.20;;;;;;5087010;28;20437;-66
2022/08/13 01:30:18;;;;;;;1.87;1.67;;;24.00;39.20;;;;;;5087614;28;20829;-66
2022/08/13 01:32:46;;;;;;;5.03;2.07;;;24.00;39.30;;;;;;5086934;28;20437;-66
2022/08/13 01:35:15;;;;;;;2.33;2.13;;;24.00;39.40;;;;;;5086512;28;20448;-66
2022/08/13 01:37:42;;;;;;;4.20;2.07;;;24.00;39.40;;;;;;5083305;28;20440;-67
2022/08/13 01:40:12;;;;;;;3.23;2.00;;;23.90;39.40;;;;;;5075764;28;20456;-66
2022/08/13 01:42:40;;;;;;;2.80;1.70;;;24.00;39.60;;;;;;5081775;28;20459;-67
2022/08/13 01:45:09;;;;;;;1.97;1.60;;;23.90;39.70;;;;;;5087109;28;20955;-66
2022/08/13 01:50:29;;;;;;;6.50;1.60;;;24.00;40.40;;;;;;5091099;28;20472;-66
2022/08/13 01:53:01;;;;;;;2.10;1.90;;;23.90;40.50;;;;;;5090719;28;20425;-66
2022/08/13 01:55:39;;;;;;;2.77;1.80;;;23.90;40.50;;;;;;5090894;28;20436;-66
2022/08/13 01:58:08;;;;;;;2.57;1.30;;;23.90;40.50;;;;;;5090585;28;20486;-66
2022/08/13 02:00:37;;;;;;;3.30;1.70;;;23.90;40.50;;;;;;5090520;28;20461;-66
2022/08/13 02:03:05;;;;;;;2.90;2.30;;;24.00;40.40;;;;;;5090947;28;20490;-67
2022/08/13 02:05:36;;;;;;;1.70;1.60;;;24.00;41.00;;;;;;5090585;28;20820;-66
2022/08/13 02:08:03;;;;;;;2.17;2.07;;;24.00;40.30;;;;;;5090521;28;20459;-67
2022/08/13 02:10:32;;;;;;;2.20;1.97;;;24.00;40.20;;;;;;5090488;28;20467;-66
2022/08/13 02:12:59;;;;;;;5.00;1.97;;;24.00;40.10;;;;;;5090551;28;20962;-66
2022/08/13 02:15:25;;;;;;;1.77;1.67;;;24.00;40.00;;;;;;5090896;28;20449;-66
2022/08/13 02:17:52;;;;;;;5.63;1.80;;;24.00;39.70;;;;;;5089952;28;20455;-66
2022/08/13 02:20:19;;;;;;;1.93;1.80;;;24.10;39.30;;;;;;5090713;28;20563;-66
2022/08/13 02:22:47;;;;;;;2.77;1.60;;;24.10;39.20;;;;;;5089855;28;20445;-66
2022/08/13 02:25:15;;;;;;;2.10;2.00;;;24.10;39.00;;;;;;5089759;28;20447;-66
2022/08/13 02:27:44;;;;;;;3.90;1.53;;;24.10;38.90;;;;;;5090303;28;20440;-66
2022/08/13 02:30:15;;;;;;;4.67;2.57;;;24.20;38.70;;;;;;5087537;28;20449;-67
2022/08/13 02:32:42;;;;;;;3.43;2.43;;;24.20;38.50;;;;;;5089995;28;20469;-66
2022/08/13 02:35:10;;;;;;;3.23;2.60;;;24.20;38.50;;;;;;5089945;28;20436;-67
2022/08/13 02:37:37;;;;;;;6.13;2.40;;;24.20;38.40;;;;;;5089708;28;20440;-67
2022/08/13 02:41:38;;;;;;;2.80;2.60;;;24.20;37.80;;;;;;5089407;28;20512;-67
2022/08/13 02:42:53;;;;;;;3.30;2.27;;;24.20;37.70;;;;;;5089204;28;20448;-66
2022/08/13 02:45:22;;;;;;;3.43;2.40;;;24.30;37.20;;;;;;5089954;28;20543;-66
2022/08/13 02:47:49;;;;;;;2.60;2.27;;;24.30;37.00;;;;;;5089821;28;20445;-67
2022/08/13 02:50:16;;;;;;;2.63;2.43;;;24.20;37.00;;;;;;5089388;28;20525;-67
2022/08/13 02:52:45;;;;;;;4.13;2.30;;;24.20;37.10;;;;;;5089868;28;20484;-66
2022/08/13 02:55:12;;;;;;;3.97;2.20;;;24.20;37.00;;;;;;5089225;28;20448;-66
2022/08/13 02:57:38;;;;;;;6.00;2.17;;;24.20;37.00;;;;;;5088270;28;20441;-66
2022/08/13 03:00:09;;;;;;;2.87;2.67;;;24.20;37.10;;;;;;5089264;28;20452;-66
2022/08/13 03:02:39;;;;;;;2.90;2.53;;;24.20;37.30;;;;;;5088910;28;20433;-66
2022/08/13 03:05:06;;;;;;;5.33;2.90;;;24.30;37.10;;;;;;5090102;28;20459;-66
2022/08/13 03:07:33;;;;;;;2.83;2.63;;;24.20;37.10;;;;;;5088462;28;20455;-66
2022/08/13 03:10:00;;;;;;;3.13;2.50;;;24.20;37.40;;;;;;5089225;28;20432;-66
2022/08/13 03:12:29;;;;;;;3.13;2.93;;;24.20;37.50;;;;;;5088809;28;20495;-67
2022/08/13 03:14:58;;;;;;;4.00;2.93;;;24.30;37.80;;;;;;5089152;28;20899;-66
2022/08/13 03:17:26;;;;;;;2.63;2.43;;;24.30;37.70;;;;;;5089003;28;20792;-67
2022/08/13 03:19:53;;;;;;;2.70;2.50;;;24.30;37.50;;;;;;5088593;28;20449;-67
2022/08/13 03:22:20;;;;;;;2.63;2.27;;;24.20;37.50;;;;;;5088875;28;20475;-67
2022/08/13 03:24:47;;;;;;;3.67;2.50;;;24.20;37.40;;;;;;5088688;28;20441;-67
2022/08/13 03:27:13;;;;;;;3.23;2.30;;;24.20;37.50;;;;;;5088919;28;20449;-67
2022/08/13 03:29:40;;;;;;;2.77;2.40;;;24.20;37.60;;;;;;5088793;28;20449;-66
2022/08/13 03:32:07;;;;;;;2.97;2.67;;;24.20;38.00;;;;;;5084447;28;20480;-66
2022/08/13 03:34:36;;;;;;;2.60;2.40;;;24.10;37.60;;;;;;5078526;28;20452;-66
2022/08/13 03:37:03;;;;;;;4.80;2.10;;;24.10;37.70;;;;;;5085756;28;20453;-66
2022/08/13 03:39:32;;;;;;;3.73;2.60;;;24.10;38.00;;;;;;5087821;28;20453;-67
2022/08/13 03:42:00;;;;;;;2.73;2.53;;;24.10;38.20;;;;;;5087794;28;20491;-67
2022/08/13 03:44:27;;;;;;;4.23;2.23;;;24.00;38.20;;;;;;5089032;28;20467;-66
2022/08/13 03:46:53;;;;;;;3.10;2.80;;;24.00;38.30;;;;;;5089174;28;20447;-66
2022/08/13 03:49:20;;;;;;;3.27;2.30;;;24.00;38.50;;;;;;5089805;28;20444;-66
2022/08/13 03:51:49;;;;;;;3.10;2.67;;;24.00;38.40;;;;;;5088764;28;20493;-66
2022/08/13 03:54:15;;;;;;;2.60;2.40;;;23.90;38.40;;;;;;5087844;28;20453;-66
2022/08/13 03:56:45;;;;;;;2.23;2.03;;;23.90;38.60;;;;;;5089057;28;20828;-66
2022/08/13 03:59:13;;;;;;;2.33;2.23;;;23.80;38.40;;;;;;5089435;28;20452;-66
2022/08/13 04:01:41;;;;;;;3.00;2.80;;;23.80;38.60;;;;;;5089110;28;20461;-67
2022/08/13 04:04:08;;;;;;;2.70;2.50;;;23.80;38.80;;;;;;5089341;28;20464;-67
2022/08/13 04:06:35;;;;;;;3.90;2.40;;;23.70;38.90;;;;;;5088761;28;20441;-67
2022/08/13 04:09:03;;;;;;;3.27;2.53;;;23.70;39.10;;;;;;5088356;28;20451;-66
2022/08/13 04:11:30;;;;;;;2.50;2.30;;;23.60;39.30;;;;;;5087667;28;20489;-67
2022/08/13 04:13:57;;;;;;;3.57;2.53;;;23.60;39.40;;;;;;5088182;28;20449;-67
2022/08/13 04:16:26;;;;;;;2.97;2.33;;;23.60;39.50;;;;;;5088533;28;20966;-66
2022/08/13 04:18:54;;;;;;;3.17;2.40;;;23.50;39.50;;;;;;5088776;28;20444;-66
2022/08/13 04:21:23;;;;;;;4.63;2.70;;;23.50;39.60;;;;;;5088538;28;20484;-67
2022/08/13 04:23:52;;;;;;;3.20;3.00;;;23.40;39.90;;;;;;5087592;28;20453;-66
2022/08/13 04:26:21;;;;;;;2.73;2.53;;;23.40;40.10;;;;;;5086799;28;20445;-66
2022/08/13 04:28:48;;;;;;;3.60;3.30;;;23.30;40.10;;;;;;5086534;28;20461;-66
2022/08/13 04:31:15;;;;;;;6.43;3.40;;;23.30;40.20;;;;;;5085672;28;20468;-66
2022/08/13 04:33:42;;;;;;;4.47;3.27;;;23.30;40.20;;;;;;5086639;28;20454;-66
2022/08/13 04:36:09;;;;;;;6.30;3.90;;;23.20;40.30;;;;;;5086563;28;20448;-66
2022/08/13 04:38:36;;;;;;;5.20;3.80;;;23.10;40.40;;;;;;5086561;28;20800;-66
2022/08/13 04:41:03;;;;;;;7.37;3.33;;;23.10;40.60;;;;;;5086048;28;20473;-67
2022/08/13 04:43:31;;;;;;;4.03;3.67;;;23.00;40.50;;;;;;5087022;28;20429;-67
2022/08/13 04:45:59;;;;;;;4.73;3.73;;;23.00;40.60;;;;;;5086794;28;20509;-66
2022/08/13 04:48:28;;;;;;;4.00;3.50;;;22.90;40.60;;;;;;5087621;28;20451;-66
2022/08/13 04:50:55;;;;;;;3.50;2.90;;;22.90;40.70;;;;;;5086832;28;21010;-66
2022/08/13 04:53:27;;;;;;;3.07;2.83;;;22.90;40.80;;;;;;5087730;28;20480;-66
2022/08/13 04:55:55;;;;;;;3.70;3.20;;;22.80;40.90;;;;;;5087574;28;20439;-67
2022/08/13 04:58:23;;;;;;;3.60;2.80;;;22.80;41.20;;;;;;5087020;28;20449;-67
2022/08/13 05:00:51;;;;;;;7.83;3.10;;;22.80;41.50;;;;;;5087545;28;20484;-67
2022/08/13 05:03:20;;;;;;;4.73;2.80;;;22.80;41.60;;;;;;5086332;28;20447;-66
2022/08/13 05:05:49;;;;;;;2.97;2.63;;;22.80;41.90;;;;;;5085895;28;20437;-67
2022/08/13 05:08:17;;;;;;;3.37;3.07;;;22.80;41.90;;;;;;5086464;28;20449;-67
2022/08/13 05:10:45;;;;;;;2.97;2.77;;;22.80;42.10;;;;;;5086393;28;20536;-67
2022/08/13 05:13:24;;;;;;;3.40;3.10;;;22.80;42.30;;;;;;5086341;28;20583;-67
2022/08/13 05:15:54;;;;;;;3.03;2.70;;;22.80;42.50;;;;;;5087017;28;20488;-66
2022/08/13 05:18:21;;;;;;;3.40;2.83;;;22.80;42.60;;;;;;5086817;28;20449;-66
2022/08/13 05:20:48;;;;;;;3.20;2.90;;;22.80;42.70;;;;;;5085393;28;20471;-67
2022/08/13 05:23:15;;;;;;;6.17;3.03;;;22.80;42.80;;;;;;5086178;28;20501;-66
2022/08/13 05:25:42;;;;;;;3.93;2.90;;;22.90;43.30;;;;;;5084758;28;20483;-67
2022/08/13 05:28:10;;;;;;;3.40;2.83;;;22.90;43.40;;;;;;5085729;28;20429;-66
2022/08/13 05:30:38;;;;;;;4.73;2.87;;;22.90;43.60;;;;;;5086713;28;20483;-66
2022/08/13 05:33:14;;;;;;;2.73;2.53;;;22.90;43.80;;;;;;5086058;28;20483;-66
2022/08/13 05:35:41;;;;;;;2.73;2.53;;;22.90;44.20;;;;;;5086443;28;20409;-66
2022/08/13 05:38:08;;;;;;;3.37;2.73;;;22.90;44.40;;;;;;5084655;28;20503;-67
2022/08/13 05:40:35;;;;;;;3.20;2.87;;;22.90;44.60;;;;;;5080767;28;20883;-66
2022/08/13 05:43:02;;;;;;;2.90;2.70;;;22.90;44.70;;;;;;5080255;28;20437;-67
2022/08/13 05:45:29;;;;;;;4.30;3.40;;;22.90;44.80;;;;;;5084706;28;20452;-66
2022/08/13 05:47:56;;;;;;;2.90;2.70;;;23.00;45.00;;;;;;5085119;28;20477;-66
2022/08/13 05:50:25;;;;;;;3.63;3.20;;;23.00;45.10;;;;;;5086080;28;20461;-67
2022/08/13 05:52:52;;;;;;;4.53;3.43;;;23.00;45.40;;;;;;5085724;28;20484;-67
2022/08/13 05:55:19;;;;;;;3.67;3.27;;;23.10;45.70;;;;;;5086254;28;20453;-66
2022/08/13 05:57:46;;;;;;;3.07;2.77;;;23.10;46.10;;;;;;5086701;28;20456;-66
2022/08/13 06:05:46;;;;;;;5.50;3.10;;;23.20;45.80;;;;;;5086449;28;20455;-66
2022/08/13 06:08:15;;;;;;;3.20;2.83;;;23.30;45.60;;;;;;5086362;28;20439;-66
2022/08/13 06:10:44;;;;;;;4.87;3.17;;;23.30;46.00;;;;;;5086853;28;20469;-67
2022/08/13 06:13:13;;;;;;;3.50;3.20;;;23.40;46.00;;;;;;5086835;28;20480;-66
2022/08/13 06:15:40;;;;;;;6.77;2.70;;;23.40;46.30;;;;;;5086631;28;20457;-66
2022/08/13 06:18:08;;;;;;;3.30;2.63;;;23.50;46.40;;;;;;5086732;28;20449;-67
2022/08/13 06:20:34;;;;;;;10.20;3.20;;;23.60;46.60;;;;;;5086241;28;20457;-67
2022/08/13 06:23:04;;;;;;;5.30;2.70;;;23.60;45.90;;;;;;5086549;28;20440;-67
2022/08/13 06:25:32;;;;;;;3.30;3.00;;;23.70;45.40;;;;;;5087266;28;20441;-67
2022/08/13 06:28:00;;;;;;;4.87;3.20;;;23.80;44.90;;;;;;5085959;28;20441;-67
2022/08/13 06:30:28;;;;;;;5.47;3.07;;;23.90;44.80;;;;;;5086849;28;20475;-67
2022/08/13 06:33:02;;;;;;;5.47;3.67;;;24.00;45.00;;;;;;5086984;28;20522;-66
2022/08/13 06:35:31;;;;;;;5.27;3.20;;;24.10;44.60;;;;;;5090375;28;20442;-66
2022/08/13 06:37:58;;;;;;;4.70;3.60;;;24.20;44.80;;;;;;5089825;28;20449;-67
2022/08/13 06:40:30;;;;;;;4.10;3.30;;;24.30;44.10;;;;;;5090384;28;20883;-67
2022/08/13 06:42:58;;;;;;;3.80;3.20;;;24.40;43.40;;;;;;5089863;28;20453;-66
2022/08/13 06:45:26;;;;;;;4.27;3.87;;;24.50;42.80;;;;;;5089593;28;20437;-66
2022/08/13 06:47:53;;;;;;;3.10;2.80;;;24.70;42.70;;;;;;5089344;28;20445;-66
2022/08/13 06:50:20;;;;;;;4.57;3.23;;;24.80;42.40;;;;;;5088622;28;20465;-66
2022/08/13 06:52:47;;;;;;;3.27;2.73;;;24.90;41.80;;;;;;5089687;28;20481;-66
2022/08/13 06:55:14;;;;;;;3.63;2.73;;;25.00;41.10;;;;;;5090279;28;20498;-67
2022/08/13 06:57:43;;;;;;;3.30;3.03;;;25.10;40.80;;;;;;5089080;28;20452;-67
2022/08/13 07:00:11;;;;;;;2.30;2.20;;;25.20;40.10;;;;;;5082246;28;20433;-66
2022/08/13 07:02:40;;;;;;;3.47;2.67;;;25.30;40.30;;;;;;5079541;28;20453;-66
2022/08/13 07:05:08;;;;;;;2.73;2.20;;;25.40;40.10;;;;;;5086666;28;20441;-66
2022/08/13 07:07:37;;;;;;;2.60;2.40;;;25.60;38.90;;;;;;5088567;28;20445;-67
2022/08/13 07:10:05;;;;;;;2.30;2.10;;;25.70;38.50;;;;;;5088882;28;20437;-66
2022/08/13 07:12:33;;;;;;;2.97;2.77;;;25.80;38.00;;;;;;5089542;28;20481;-67
2022/08/13 07:15:01;;;;;;;3.00;2.70;;;26.00;38.10;;;;;;5089896;28;20483;-67
2022/08/13 07:17:29;;;;;;;5.57;2.90;;;26.10;37.70;;;;;;5089631;28;20465;-68
2022/08/13 07:19:56;;;;;;;4.40;3.40;;;26.30;37.40;;;;;;5089622;28;20445;-67
2022/08/13 07:22:22;;;;;;;3.30;2.77;;;26.40;36.90;;;;;;5089006;28;20449;-66
2022/08/13 07:24:50;;;;;;;3.63;3.10;;;26.50;36.70;;;;;;5088710;28;20512;-66
2022/08/13 07:27:17;;;;;;;7.57;3.30;;;26.70;36.60;;;;;;5089730;28;20433;-66
2022/08/13 07:29:49;;;;;;;3.60;2.50;;;26.80;36.30;;;;;;5089035;28;20527;-66
2022/08/13 07:32:17;;;;;;;4.27;2.53;;;27.00;36.20;;;;;;5088334;28;20875;-66
2022/08/13 07:34:44;;;;;;;5.13;2.50;;;27.20;36.00;;;;;;5088689;28;20441;-66
2022/08/13 07:37:19;;;;;;;2.80;2.50;;;27.30;35.50;;;;;;5087762;28;20944;-66
2022/08/13 07:39:45;;;;;;;3.77;2.60;;;27.50;35.90;;;;;;5088621;28;20447;-66
2022/08/13 07:42:15;;;;;;;2.57;2.37;;;27.60;34.50;;;;;;5088269;28;20457;-66
2022/08/13 07:44:42;;;;;;;3.27;2.20;;;27.80;34.50;;;;;;5088619;28;20438;-67
2022/08/13 07:47:12;;;;;;;2.73;2.37;;;28.00;33.90;;;;;;5088545;28;20436;-67
2022/08/13 07:49:41;;;;;;;3.00;2.60;;;28.10;33.20;;;;;;5087964;28;20459;-67
2022/08/13 07:52:09;;;;;;;2.60;2.40;;;28.20;33.30;;;;;;5087377;28;20471;-66
2022/08/13 07:54:36;;;;;;;3.47;2.30;;;28.30;33.90;;;;;;5088012;28;21015;-66
2022/08/13 07:57:03;;;;;;;5.10;2.27;;;28.50;33.30;;;;;;5088554;28;20457;-66
2022/08/13 07:59:31;;;;;;;4.70;2.57;;;28.80;33.40;;;;;;5088151;28;20922;-66
2022/08/13 08:01:58;;;;;;;4.20;2.73;;;29.00;33.60;;;;;;5087937;28;20469;-67
2022/08/13 08:04:26;;;;;;;4.13;2.20;;;29.30;32.40;;;;;;5087560;28;20457;-67
2022/08/13 08:06:54;;;;;;;3.07;1.93;;;29.40;31.40;;;;;;5088251;28;20540;-67
2022/08/13 08:09:22;;;;;;;2.70;2.30;;;29.60;31.40;;;;;;5087698;28;20434;-67
2022/08/13 08:14:37;;;;;;;3.00;2.10;;;30.00;31.00;;;;;;5087987;28;20460;-67
2022/08/13 08:17:05;;;;;;;1.93;1.83;;;30.30;30.80;;;;;;5087820;28;20479;-67
2022/08/13 08:19:32;;;;;;;2.90;2.10;;;30.50;30.20;;;;;;5086257;28;20449;-67
2022/08/13 08:22:02;;;;;;;3.40;2.37;;;30.70;28.90;;;;;;5086789;28;20472;-67
2022/08/13 08:24:32;;;;;;;5.57;2.07;;;30.80;28.60;;;;;;5087791;28;20449;-67
2022/08/13 08:27:01;;;;;;;4.70;2.60;;;30.80;28.70;;;;;;5087098;28;20452;-67
2022/08/13 08:29:31;;;;;;;4.93;2.33;;;30.90;29.20;;;;;;5087070;28;20457;-67
2022/08/13 08:31:59;;;;;;;3.33;2.50;;;31.10;28.70;;;;;;5086540;28;20460;-67
2022/08/13 08:34:26;;;;;;;6.93;2.00;;;31.30;28.60;;;;;;5086619;28;20503;-67
2022/08/13 08:36:55;;;;;;;3.73;2.13;;;31.50;27.70;;;;;;5087646;28;20452;-67
2022/08/13 08:45:03;;;;;;;2.40;2.00;;;32.20;28.00;;;;;;5085553;28;20966;-67
2022/08/13 08:47:34;;;;;;;3.00;2.10;;;32.50;27.50;;;;;;5086385;28;20555;-68
2022/08/13 08:50:02;;;;;;;2.10;1.90;;;32.60;26.30;;;;;;5084313;28;20429;-68
2022/08/13 08:55:13;;;;;;;5.33;1.80;;;33.00;26.60;;;;;;5079333;28;20444;-69
2022/08/13 08:57:44;;;;;;;2.43;1.80;;;33.20;25.80;;;;;;5084894;28;20447;-68
2022/08/13 09:00:14;;;;;;;3.60;1.80;;;33.40;25.90;;;;;;5084451;28;20447;-68
2022/08/13 09:02:41;;;;;;;1.73;1.57;;;33.70;25.80;;;;;;5083722;28;20490;-70
2022/08/13 09:05:12;;;;;;;2.20;1.60;;;33.90;24.70;;;;;;5083306;28;20425;-69
2022/08/13 09:07:41;;;;;;;2.40;2.03;;;34.00;23.90;;;;;;5082630;28;20428;-70
2022/08/13 09:10:10;;;;;;;3.40;1.83;;;34.10;23.50;;;;;;5081943;28;20994;-71
2022/08/13 09:12:41;;;;;;;7.17;2.10;;;34.10;24.10;;;;;;5081737;28;20878;-71
2022/08/13 09:15:09;;;;;;;2.10;1.90;;;34.20;24.00;;;;;;5082071;28;20431;-70
2022/08/13 09:17:38;;;;;;;2.00;1.90;;;34.40;24.20;;;;;;5082790;28;20459;-70
2022/08/13 09:20:10;;;;;;;3.77;1.73;;;34.70;24.30;;;;;;5081989;28;20444;-71
2022/08/13 09:22:40;;;;;;;2.13;1.90;;;34.90;23.60;;;;;;5082223;28;20432;-70
2022/08/13 09:25:08;;;;;;;2.10;1.90;;;35.20;23.50;;;;;;5084120;28;20429;-69
2022/08/13 09:27:35;;;;;;;2.43;1.90;;;35.20;22.20;;;;;;5084513;28;20437;-68
2022/08/13 09:30:06;;;;;;;4.13;1.83;;;35.30;23.10;;;;;;5082322;28;20452;-70
2022/08/13 09:32:33;;;;;;;2.43;1.87;;;35.40;23.30;;;;;;5082572;28;20429;-67
2022/08/13 09:35:01;;;;;;;2.90;1.37;;;35.50;22.00;;;;;;5080870;28;20549;-69
2022/08/13 09:37:30;;;;;;;6.43;1.70;;;35.60;22.10;;;;;;5080387;28;20452;-70
2022/08/13 09:40:05;;;;;;;3.27;1.77;;;35.60;22.20;;;;;;5075414;28;20870;-70
2022/08/13 09:42:37;;;;;;;4.10;2.10;;;35.80;21.90;;;;;;5075761;28;20919;-72
2022/08/13 09:45:08;;;;;;;1.77;1.57;;;35.60;21.40;;;;;;5081528;28;20437;-71
2022/08/13 09:47:35;;;;;;;2.63;1.80;;;35.50;21.90;;;;;;5089709;28;20466;-73
2022/08/13 09:50:04;;;;;;;2.40;1.50;;;35.70;22.40;;;;;;5082464;28;20448;-69
2022/08/13 09:52:30;;;;;;;3.23;1.60;;;35.80;22.10;;;;;;5086106;28;20440;-68
2022/08/13 09:54:57;;;;;;;2.00;1.90;;;36.10;21.90;;;;;;5085267;28;20487;-69
2022/08/13 09:57:25;;;;;;;3.33;1.60;;;36.10;21.00;;;;;;5085902;28;20501;-69
2022/08/13 09:59:52;;;;;;;2.70;1.80;;;36.20;21.40;;;;;;5086346;28;20471;-68
2022/08/13 10:02:21;;;;;;;3.10;2.10;;;36.30;22.20;;;;;;5085263;28;20460;-68
2022/08/13 10:04:52;;;;;;;2.17;1.70;;;36.70;22.80;;;;;;5084832;28;20811;-68
2022/08/13 10:07:19;;;;;;;3.30;1.87;;;37.10;21.10;;;;;;5084836;28;20433;-68
2022/08/13 10:09:46;;;;;;;1.93;1.73;;;37.10;20.10;;;;;;5089455;28;20483;-68
2022/08/13 10:12:13;;;;;;;3.03;1.90;;;37.10;20.80;;;;;;5088801;28;20828;-68
2022/08/13 10:14:40;;;;;;;2.77;1.97;;;37.40;21.20;;;;;;5088585;28;20487;-68
2022/08/13 10:17:08;;;;;;;3.27;1.90;;;37.80;20.90;;;;;;5088664;28;20206;-68
2022/08/13 10:19:36;;;;;;;2.60;1.67;;;38.20;20.40;;;;;;5089124;28;20618;-68
2022/08/13 10:22:02;;;;;;;2.08;1.98;;;38.70;20.30;;;;;;5089857;28;20236;-68
2022/08/13 10:24:30;;;;;;;3.42;1.67;;;39.10;18.50;;;;;;5089196;28;20183;-68
2022/08/13 10:26:56;;;;;;;3.20;1.70;;;39.40;18.50;;;;;;5085662;28;20201;-68
2022/08/13 10:29:23;;;;;;;3.30;1.70;;;39.70;18.10;;;;;;5081007;28;20206;-69
2022/08/13 10:31:50;;;;;;;3.58;1.50;;;39.80;17.60;;;;;;5085508;28;20218;-68
2022/08/13 10:34:22;;;;;;;3.65;1.75;;;39.80;17.50;;;;;;5087843;28;20218;-68
2022/08/13 10:36:51;;;;;;;2.88;1.70;;;40.10;17.50;;;;;;5088076;28;20186;-68
2022/08/13 10:39:18;;;;;;;1.50;1.40;;;40.40;17.30;;;;;;5088429;28;20202;-69
2022/08/13 10:41:45;;;;;;;2.47;1.42;;;40.80;17.20;;;;;;5088101;28;20259;-69
2022/08/13 10:44:13;;;;;;;2.15;1.25;;;41.30;17.00;;;;;;5088973;28;20198;-69
2022/08/13 10:46:45;;;;;;;1.83;1.55;;;41.70;17.20;;;;;;5089701;28;20191;-69
2022/08/13 10:49:12;;;;;;;3.55;1.75;;;42.30;16.80;;;;;;5089310;28;20190;-69
2022/08/13 10:51:39;;;;;;;8.25;1.67;;;43.00;16.30;;;;;;5088676;28;20256;-70
2022/08/13 10:54:07;;;;;;;2.15;1.52;;;43.60;14.80;;;;;;5089324;28;20304;-69
2022/08/13 10:56:34;;;;;;;3.10;1.80;;;44.00;14.60;;;;;;5089166;28;20269;-69
2022/08/13 10:59:03;;;;;;;1.77;1.67;;;44.50;14.40;;;;;;5087644;28;20206;-70
2022/08/13 11:01:30;;;;;;;1.75;1.30;;;45.00;14.10;;;;;;5088626;28;20225;-69
2022/08/13 11:04:01;;;;;;;3.40;1.70;;;45.50;14.40;;;;;;5088372;28;20216;-69
2022/08/13 11:06:28;;;;;;;3.35;1.55;;;46.00;14.20;;;;;;5087368;28;20182;-69
2022/08/13 11:08:59;;;;;;;1.50;1.40;;;46.50;13.90;;;;;;5085041;28;20202;-69
2022/08/13 11:11:27;;;;;;;1.77;1.20;;;47.00;13.00;;;;;;5084326;28;20633;-69
2022/08/13 11:13:55;;;;;;;1.48;1.30;;;47.40;12.90;;;;;;5084050;28;20218;-69
2022/08/13 11:19:14;;;;;;;1.00;0.98;;;48.10;12.60;;;;;;5083784;28;20181;-69
2022/08/13 11:21:45;;;;;;;3.13;1.40;;;48.40;12.40;;;;;;5085209;28;20249;-69
2022/08/13 11:24:13;;;;;;;1.38;1.02;;;48.70;12.30;;;;;;5085405;28;20190;-70
2022/08/13 11:26:41;;;;;;;10.45;1.25;;;48.90;11.80;;;;;;5086144;28;20209;-70
2022/08/13 11:29:08;;;;;;;2.13;1.30;;;49.20;11.70;;;;;;5086805;28;20580;-70
2022/08/13 11:31:35;;;;;;;2.05;1.10;;;49.60;11.20;;;;;;5086913;28;20236;-70
2022/08/13 11:34:02;;;;;;;2.42;1.08;;;49.90;11.10;;;;;;5085619;28;20214;-70
2022/08/13 11:36:28;;;;;;;4.22;1.15;;;50.10;10.90;;;;;;5086091;28;20194;-70
2022/08/13 11:38:55;;;;;;;1.40;1.30;;;50.40;10.80;;;;;;5085942;28;20213;-70
2022/08/13 11:41:22;;;;;;;2.38;1.20;;;50.50;10.30;;;;;;5086286;28;20308;-70
2022/08/13 11:43:52;;;;;;;1.25;1.10;;;50.70;10.30;;;;;;5085466;28;20183;-70
2022/08/13 11:46:19;;;;;;;2.22;1.58;;;50.90;10.20;;;;;;5084483;28;20239;-70
2022/08/13 11:48:46;;;;;;;1.40;1.05;;;51.00;9.60;;;;;;5085152;28;20277;-70
2022/08/13 11:51:13;;;;;;;3.17;1.10;;;51.20;10.00;;;;;;5084187;28;20229;-70
2022/08/13 11:53:39;;;;;;;1.10;1.00;;;51.40;10.40;;;;;;5082090;28;20291;-70
2022/08/13 11:56:07;;;;;;;1.08;1.00;;;51.50;9.80;;;;;;5082183;28;20186;-70
2022/08/13 11:58:34;;;;;;;5.82;1.20;;;51.70;9.50;;;;;;5081953;28;20216;-70
2022/08/13 12:01:06;;;;;;;1.63;0.90;;;51.90;9.60;;;;;;5084684;28;20248;-70
2022/08/13 12:03:34;;;;;;;3.08;1.10;;;52.00;9.30;;;;;;5085468;28;20218;-70
2022/08/13 12:06:01;;;;;;;1.13;1.02;;;52.30;9.70;;;;;;5085226;28;20228;-70
2022/08/13 12:08:28;;;;;;;9.95;1.60;;;52.40;9.20;;;;;;5085539;28;20186;-70
2022/08/13 12:10:54;;;;;;;1.67;0.88;;;52.60;9.00;;;;;;5084855;28;20236;-70
2022/08/13 12:13:21;;;;;;;3.42;1.05;;;52.60;8.20;;;;;;5084804;28;20281;-70
2022/08/13 12:15:48;;;;;;;2.55;1.10;;;52.70;8.10;;;;;;5084717;28;20222;-70
2022/08/13 12:18:18;;;;;;;4.75;1.23;;;52.90;8.90;;;;;;5085235;28;20202;-70
2022/08/13 12:20:45;;;;;;;4.57;1.13;;;53.00;8.70;;;;;;5085799;28;20233;-70
2022/08/13 12:23:12;;;;;;;1.33;1.10;;;53.10;8.10;;;;;;5084059;28;20201;-70
2022/08/13 12:25:39;;;;;;;1.50;0.93;;;53.30;8.60;;;;;;5084982;28;20205;-70
2022/08/13 12:28:13;;;;;;;1.00;0.90;;;53.60;8.50;;;;;;5083662;28;20236;-70
2022/08/13 12:30:42;;;;;;;1.70;1.10;;;53.70;8.40;;;;;;5083040;28;20222;-71
2022/08/13 12:33:09;;;;;;;0.85;0.80;;;53.90;7.90;;;;;;5082387;28;20602;-71
2022/08/13 12:35:38;;;;;;;0.88;0.80;;;54.20;8.00;;;;;;5081940;28;20226;-71
2022/08/13 12:38:09;;;;;;;3.47;1.10;;;54.30;7.60;;;;;;5081797;28;20221;-71
2022/08/13 12:40:37;;;;;;;2.75;1.10;;;54.50;7.70;;;;;;5081912;28;20229;-71
2022/08/13 12:43:04;;;;;;;0.88;0.88;;;54.80;7.90;;;;;;5082133;28;20275;-71
2022/08/13 12:45:31;;;;;;;1.33;1.23;;;54.90;7.60;;;;;;5082132;28;20205;-70
2022/08/13 12:48:03;;;;;;;3.13;0.90;;;55.10;7.70;;;;;;5082425;28;20202;-71
2022/08/13 12:50:30;;;;;;;1.35;1.10;;;55.30;7.50;;;;;;5082306;28;20225;-71
2022/08/13 12:52:58;;;;;;;1.20;1.10;;;55.50;7.40;;;;;;5081623;28;20236;-71
2022/08/13 12:55:25;;;;;;;2.50;1.00;;;55.70;7.00;;;;;;5083068;28;20217;-71
2022/08/13 12:57:52;;;;;;;2.10;1.08;;;55.80;7.00;;;;;;5082760;28;20216;-71
2022/08/13 13:00:19;;;;;;;1.10;1.00;;;55.90;7.20;;;;;;5082498;28;20225;-72
2022/08/13 13:02:47;;;;;;;1.35;1.10;;;56.10;7.30;;;;;;5076067;28;20696;-73
2022/08/13 13:05:15;;;;;;;2.58;1.00;;;56.30;7.30;;;;;;5076686;28;20202;-73
2022/08/13 13:07:42;;;;;;;1.20;1.00;;;56.50;6.50;;;;;;5076479;28;20209;-73
2022/08/13 13:10:10;;;;;;;1.10;1.00;;;56.70;6.20;;;;;;5076824;28;20206;-73
2022/08/13 13:12:38;;;;;;;2.25;0.90;;;56.80;6.20;;;;;;5076375;28;20259;-73
2022/08/13 13:15:06;;;;;;;1.23;1.00;;;56.80;6.70;;;;;;5076051;28;20232;-73
2022/08/13 13:17:33;;;;;;;1.58;1.05;;;56.90;6.70;;;;;;5077208;28;20206;-73